Terminal Aerodrome Forecast
Issued by NWS Mt. Holly, NJ

Home | Current Version | Previous Version | Text Only | Print | Product List | Glossary On
Versions: 1 2 3 4 5 6 7 8 9 10 11 12 13 14 15 16 17 18 19 20 21 22 23 24 25 26 27 28 29 30 31 32 33 34 35
235
FTUS41 KPHI 280524
TAFPHL
TAF
KPHL 280524Z 2806/2912 VRB03KT P6SM SCT250
     FM281400 16004KT P6SM SCT250
     FM281700 22006KT P6SM SCT050
     FM282300 20006KT P6SM BKN050
      TEMPO 2903/2905 -SHRA OVC035
     FM290500 17006KT 5SM -SHRA BR OVC035
     FM290800 14006KT 3SM SHRA OVC025=

USA.gov is the U.S. government's official web portal to all federal, state and local government web resources and services.